Time;durP1;ratioP1;P1;durP2;ratioP2;P2;SDS_P1;SDS_P2;PMS_P1;PMS_P2;Temp;Humidity;BMP_temperature;BMP_pressure;BME280_temperature;BME280_humidity;BME280_pressure;Samples;Min_cycle;Max_cycle;Signal;HPM_P1;HPM_P2
2022/05/14 00:02:05;;;;;;;16.40;9.80;;;;;;;13.16;95.50;97227.70;109974;1250;70820;-68
2022/05/14 00:04:35;;;;;;;17.00;11.60;;;;;;;13.14;96.22;97226.70;109987;1250;68408;-71
2022/05/14 00:07:05;;;;;;;16.00;8.20;;;;;;;13.11;96.54;97221.64;110139;1249;68898;-69
2022/05/14 00:09:34;;;;;;;23.00;11.30;;;;;;;13.11;95.69;97229.02;110175;1248;59742;-70
2022/05/14 00:14:55;;;;;;;24.40;11.20;;;;;;;13.07;97.83;97232.33;110168;1249;70771;-69
2022/05/14 00:17:26;;;;;;;15.80;10.90;;;;;;;13.03;98.34;97230.41;109978;1249;68128;-69
2022/05/14 00:19:56;;;;;;;18.50;10.80;;;;;;;12.99;98.49;97233.56;109907;1249;68725;-69
2022/05/14 00:22:27;;;;;;;11.40;6.80;;;;;;;12.94;97.96;97233.10;109988;1250;59832;-68
2022/05/14 00:24:56;;;;;;;;;;;;;;;12.90;96.52;97231.55;110000;1250;59687;-70
2022/05/14 00:27:27;;;;;;;10.40;7.50;;;;;;;12.86;96.37;97230.15;109925;1250;70746;-71
2022/05/14 00:29:57;;;;;;;;;;;;;;;12.82;95.90;97230.30;110203;1249;67623;-69
2022/05/14 00:32:28;;;;;;;18.20;9.00;;;;;;;12.80;97.14;97229.42;109943;1250;69222;-69
2022/05/14 00:34:57;;;;;;;;;;;;;;;12.78;97.88;97230.47;109933;1250;59739;-69
2022/05/14 00:37:26;;;;;;;11.40;8.80;;;;;;;12.75;98.71;97228.23;110104;1250;59740;-69
2022/05/14 00:39:57;;;;;;;9.20;5.90;;;;;;;12.71;98.85;97229.60;109990;1250;71621;-71
2022/05/14 00:42:27;;;;;;;13.90;9.00;;;;;;;12.67;98.34;97228.76;109748;1250;68641;-69
2022/05/14 00:44:58;;;;;;;16.50;9.60;;;;;;;12.63;98.37;97226.96;109931;1250;68461;-67
2022/05/14 00:47:36;;;;;;;13.50;10.10;;;;;;;12.59;98.79;97225.24;110091;1250;59672;-70
2022/05/14 00:50:32;;;;;;;13.80;11.20;;;;;;;12.53;99.36;97225.76;110246;1249;59672;-69
2022/05/14 00:53:12;;;;;;;10.80;6.70;;;;;;;12.48;98.79;97227.36;110065;1249;70800;-70
2022/05/14 00:55:43;;;;;;;;;;;;;;;12.46;97.34;97225.66;110196;1250;67779;-69
2022/05/14 00:58:30;;;;;;;9.30;4.70;;;;;;;12.44;96.79;97225.63;110023;1250;69422;-68
2022/05/14 01:01:01;;;;;;;18.00;7.50;;;;;;;12.43;95.90;97225.04;109867;1250;60104;-69
2022/05/14 01:03:32;;;;;;;22.50;10.00;;;;;;;12.42;97.51;97225.29;109980;1249;60060;-70
2022/05/14 01:06:06;;;;;;;13.20;8.80;;;;;;;12.40;97.73;97227.34;109985;1250;71003;-69
2022/05/14 01:08:37;;;;;;;7.90;5.60;;;;;;;12.40;97.73;97224.71;110027;1250;67665;-69
2022/05/14 01:11:09;;;;;;;13.30;10.10;;;;;;;12.41;98.09;97226.98;109933;1250;69336;-69
2022/05/14 01:13:41;;;;;;;16.20;10.70;;;;;;;12.39;99.56;97231.77;110005;1250;60206;-70
2022/05/14 01:16:12;;;;;;;18.60;11.20;;;;;;;12.38;99.51;97231.90;109991;1250;59718;-71
2022/05/14 01:18:41;;;;;;;16.40;10.30;;;;;;;12.36;99.56;97235.06;109898;1250;71777;-68
2022/05/14 01:21:32;;;;;;;16.90;10.30;;;;;;;12.34;99.62;97234.17;109966;1250;68598;-69
2022/05/14 01:27:20;;;;;;;15.60;10.60;;;;;;;12.23;99.22;97237.99;109789;1250;59768;-68
2022/05/14 01:29:50;;;;;;;17.20;10.10;;;;;;;12.20;99.11;97237.02;109648;1253;59697;-67
2022/05/14 01:32:20;;;;;;;;;;;;;;;12.18;99.00;97236.13;109892;1250;69771;-69
2022/05/14 01:34:50;;;;;;;7.90;6.10;;;;;;;12.14;98.93;97234.21;109968;1249;67636;-70
2022/05/14 01:37:23;;;;;;;11.00;8.40;;;;;;;12.11;98.60;97230.48;109906;1250;68641;-69
2022/05/14 01:39:54;;;;;;;13.40;8.80;;;;;;;12.09;98.81;97227.48;109718;1251;59725;-70
2022/05/14 01:42:25;;;;;;;10.90;9.00;;;;;;;12.07;99.06;97230.96;110018;1250;59806;-69
2022/05/14 01:44:55;;;;;;;29.70;11.00;;;;;;;12.04;98.46;97231.23;109775;1250;71537;-69
2022/05/14 01:47:24;;;;;;;15.00;9.60;;;;;;;11.99;98.22;97232.11;109884;1250;68566;-69
2022/05/14 01:49:55;;;;;;;19.10;10.50;;;;;;;11.94;97.99;97230.05;110009;1250;68540;-70
2022/05/14 01:52:25;;;;;;;14.10;8.30;;;;;;;11.91;98.53;97228.04;109975;1250;59672;-69
2022/05/14 01:54:55;;;;;;;12.60;8.90;;;;;;;11.89;98.82;97225.80;109931;1250;59677;-70
2022/05/14 01:57:24;;;;;;;15.80;9.50;;;;;;;11.86;98.77;97223.45;109876;1252;70695;-69
2022/05/14 01:59:55;;;;;;;12.20;8.90;;;;;;;11.82;98.50;97223.72;110030;1250;67634;-69
2022/05/14 02:02:26;;;;;;;11.70;8.80;;;;;;;11.78;98.47;97224.23;109938;1250;69374;-67
2022/05/14 02:04:58;;;;;;;17.80;10.50;;;;;;;11.74;98.53;97224.70;109909;1250;59715;-71
2022/05/14 02:07:28;;;;;;;13.10;9.70;;;;;;;11.69;98.01;97227.52;109893;1250;59741;-70
2022/05/14 02:10:01;;;;;;;13.30;9.00;;;;;;;11.63;98.04;97224.38;110032;1250;71519;-70
2022/05/14 02:12:33;;;;;;;13.20;9.00;;;;;;;11.60;98.01;97231.88;109970;1249;67806;-70
2022/05/14 02:15:04;;;;;;;7.20;6.10;;;;;;;11.59;97.47;97232.52;110020;1250;69644;-69
2022/05/14 02:17:35;;;;;;;28.60;9.50;;;;;;;11.58;94.93;97231.88;109990;1250;59676;-68
2022/05/14 02:20:07;;;;;;;20.10;9.70;;;;;;;11.57;94.93;97230.93;110009;1250;59649;-68
2022/05/14 02:22:36;;;;;;;27.60;10.90;;;;;;;11.57;95.83;97235.79;109958;1250;71526;-69
2022/05/14 02:25:11;;;;;;;17.90;10.10;;;;;;;11.59;98.67;97237.94;110027;1249;67793;-69
2022/05/14 02:27:42;;;;;;;14.60;10.10;;;;;;;11.59;98.98;97242.61;109799;1251;69417;-69
2022/05/14 02:30:15;;;;;;;12.30;9.00;;;;;;;11.60;99.62;97243.80;109858;1250;59697;-69
2022/05/14 02:32:46;;;;;;;12.20;9.10;;;;;;;11.58;99.52;97244.98;109944;1250;59702;-68
2022/05/14 02:35:16;;;;;;;;;;;;;;;11.56;99.92;97247.73;109866;1250;71516;-68
2022/05/14 02:37:47;;;;;;;15.10;9.60;;;;;;;11.55;100.00;97251.18;110046;1250;67872;-68
2022/05/14 02:40:17;;;;;;;15.90;10.00;;;;;;;11.50;99.55;97247.54;109965;1249;69363;-69
2022/05/14 02:42:47;;;;;;;11.70;8.80;;;;;;;11.43;98.68;97249.11;109792;1251;59691;-71
2022/05/14 02:45:18;;;;;;;12.10;8.80;;;;;;;11.35;98.09;97253.27;109782;1251;59615;-69
2022/05/14 02:47:48;;;;;;;19.30;8.80;;;;;;;11.31;97.98;97254.33;110005;1250;71287;-69
2022/05/14 02:50:19;;;;;;;11.90;7.50;;;;;;;11.28;97.62;97257.98;109822;1250;68668;-70
2022/05/14 02:52:51;;;;;;;16.50;7.70;;;;;;;11.28;98.16;97261.31;109729;1250;68636;-72
2022/05/14 02:55:23;;;;;;;14.00;8.80;;;;;;;11.29;97.99;97264.05;109864;1250;59750;-71
2022/05/14 02:57:53;;;;;;;16.30;9.90;;;;;;;11.30;98.75;97262.76;109997;1249;59676;-69
2022/05/14 03:00:26;;;;;;;13.50;9.50;;;;;;;11.31;99.36;97264.45;109871;1250;70786;-71
2022/05/14 03:02:57;;;;;;;18.90;11.20;;;;;;;11.30;99.39;97268.84;109781;1250;67694;-70
2022/05/14 03:05:28;;;;;;;14.80;10.80;;;;;;;11.30;99.59;97269.73;109922;1250;69412;-68
2022/05/14 03:07:58;;;;;;;11.40;8.60;;;;;;;11.29;99.41;97273.11;110049;1250;59718;-68
2022/05/14 03:10:28;;;;;;;;;;;;;;;11.29;99.13;97273.31;109998;1250;59717;-69
2022/05/14 03:12:58;;;;;;;10.40;7.90;;;;;;;11.27;99.40;97273.67;110017;1250;70749;-68
2022/05/14 03:15:28;;;;;;;9.30;6.90;;;;;;;11.28;99.43;97271.45;110038;1250;67739;-70
2022/05/14 03:17:57;;;;;;;9.90;7.10;;;;;;;11.31;99.42;97274.05;109912;1250;67579;-69
2022/05/14 03:20:26;;;;;;;9.20;6.50;;;;;;;11.31;99.21;97274.16;110109;1249;59748;-68
2022/05/14 03:22:56;;;;;;;10.20;7.70;;;;;;;11.30;98.94;97277.05;109949;1250;59684;-68
2022/05/14 03:25:26;;;;;;;13.60;6.80;;;;;;;11.29;98.85;97277.69;110022;1250;71566;-70
2022/05/14 03:27:56;;;;;;;14.00;8.00;;;;;;;11.25;98.38;97285.28;109907;1250;67949;-69
2022/05/14 03:30:25;;;;;;;10.30;6.90;;;;;;;11.22;98.04;97289.69;109949;1250;68473;-71
2022/05/14 03:32:55;;;;;;;12.70;9.20;;;;;;;11.19;98.32;97291.85;109978;1250;59732;-69
2022/05/14 03:35:24;;;;;;;10.00;6.40;;;;;;;11.19;98.62;97288.19;110156;1249;59741;-69
2022/05/14 03:37:53;;;;;;;23.50;9.60;;;;;;;11.20;98.94;97286.98;110142;1250;70682;-69
2022/05/14 03:40:23;;;;;;;19.70;9.10;;;;;;;11.23;98.58;97283.86;109986;1250;68393;-69
2022/05/14 03:42:53;;;;;;;31.00;12.50;;;;;;;11.29;99.53;97282.71;110006;1250;69506;-68
2022/05/14 03:45:22;;;;;;;53.60;13.90;;;;;;;11.33;100.00;97287.07;110092;1250;59743;-69
2022/05/14 03:47:52;;;;;;;11.40;8.70;;;;;;;11.34;99.75;97287.38;109919;1250;59701;-68
2022/05/14 03:50:22;;;;;;;79.10;14.40;;;;;;;11.33;99.29;97292.16;109973;1250;71524;-69
2022/05/14 03:52:52;;;;;;;35.90;11.90;;;;;;;11.33;99.21;97291.47;109862;1249;68263;-71
2022/05/14 03:55:21;;;;;;;;;;;;;;;11.36;98.98;97295.58;110179;1250;68608;-69
2022/05/14 03:57:51;;;;;;;20.70;9.60;;;;;;;11.38;99.04;97297.19;109962;1250;59725;-69
2022/05/14 04:00:20;;;;;;;14.70;7.30;;;;;;;11.42;99.07;97298.82;109944;1250;59657;-68
2022/05/14 04:02:49;;;;;;;11.00;6.10;;;;;;;11.48;98.89;97298.83;109837;1250;70765;-72
2022/05/14 04:05:20;;;;;;;31.80;11.80;;;;;;;11.55;98.50;97297.41;109830;1250;67626;-69
2022/05/14 04:07:50;;;;;;;16.10;9.60;;;;;;;11.60;98.09;97296.50;110026;1250;68484;-68
2022/05/14 04:10:19;;;;;;;15.00;8.60;;;;;;;11.64;97.19;97294.56;109829;1250;59643;-69
2022/05/14 04:12:49;;;;;;;14.90;7.50;;;;;;;11.71;96.73;97291.83;110191;1250;59687;-69
2022/05/14 04:15:19;;;;;;;;;;;;;;;11.78;96.66;97295.46;110017;1250;71534;-69
2022/05/14 04:17:48;;;;;;;32.70;10.60;;;;;;;11.82;96.69;97300.68;110189;1249;68649;-71
2022/05/14 04:20:18;;;;;;;16.20;8.90;;;;;;;11.82;95.80;97300.86;110007;1250;69743;-68
2022/05/14 04:22:50;;;;;;;19.80;9.50;;;;;;;11.88;95.93;97304.62;110243;1250;59724;-70
2022/05/14 04:25:20;;;;;;;15.20;8.10;;;;;;;11.98;95.90;97302.75;110214;1250;59705;-69
2022/05/14 04:27:55;;;;;;;9.20;6.30;;;;;;;12.08;95.34;97301.29;109974;1250;71608;-69
2022/05/14 04:30:28;;;;;;;10.40;6.70;;;;;;;12.19;94.93;97297.57;110267;1250;67942;-69
2022/05/14 04:33:05;;;;;;;12.80;7.30;;;;;;;12.35;94.67;97300.30;109892;1249;71363;-70
2022/05/14 04:35:52;;;;;;;10.50;9.40;;;;;;;12.48;94.76;97301.80;109860;1248;59704;-69
2022/05/14 04:38:33;;;;;;;11.80;8.10;;;;;;;12.61;93.97;97304.65;109835;1250;59663;-68
2022/05/14 04:41:30;;;;;;;10.50;8.60;;;;;;;12.77;94.31;97306.25;109845;1250;71593;-71
2022/05/14 04:44:13;;;;;;;9.20;8.30;;;;;;;12.94;93.24;97307.13;109718;1250;67059;-69
2022/05/14 04:46:57;;;;;;;9.20;8.30;;;;;;;13.12;93.56;97312.77;109772;1250;69442;-69
2022/05/14 04:49:43;;;;;;;10.40;8.20;;;;;;;13.32;92.85;97312.63;109908;1250;59672;-71
2022/05/14 04:52:15;;;;;;;12.10;10.70;;;;;;;13.55;92.08;97316.84;109931;1250;59634;-68
2022/05/14 04:54:45;;;;;;;;;;;;;;;13.71;91.05;97314.41;109966;1249;71601;-71
2022/05/14 04:57:16;;;;;;;8.20;7.20;;;;;;;13.75;89.84;97315.04;109765;1250;69208;-68
2022/05/14 04:59:59;;;;;;;10.10;8.30;;;;;;;13.94;89.80;97318.52;110228;1250;69558;-70
2022/05/14 05:05:27;;;;;;;;;;;;;;;14.33;87.92;97320.46;109848;1250;59676;-70
2022/05/14 05:08:00;;;;;;;7.00;6.30;;;;;;;14.65;88.94;97323.42;110235;1250;70655;-71
2022/05/14 05:10:31;;;;;;;7.40;6.40;;;;;;;14.98;85.91;97325.49;109833;1250;67863;-71
2022/05/14 05:13:00;;;;;;;8.70;7.90;;;;;;;15.34;85.30;97327.73;109868;1250;69514;-71
2022/05/14 05:15:32;;;;;;;10.00;9.00;;;;;;;15.69;83.47;97331.84;109960;1250;59729;-70
2022/05/14 05:18:03;;;;;;;7.50;6.70;;;;;;;16.10;81.83;97332.48;109776;1250;59688;-69
2022/05/14 05:20:33;;;;;;;10.00;8.10;;;;;;;16.37;79.97;97334.65;110110;1250;70978;-70
2022/05/14 05:23:04;;;;;;;9.20;6.70;;;;;;;16.68;79.88;97333.39;109957;1250;67335;-70
2022/05/14 05:25:35;;;;;;;8.30;7.20;;;;;;;17.12;82.07;97340.93;110163;1250;69477;-71
2022/05/14 05:28:04;;;;;;;9.70;8.20;;;;;;;17.48;80.13;97341.56;110145;1250;59676;-70
2022/05/14 05:30:36;;;;;;;10.80;9.60;;;;;;;17.76;80.15;97340.24;109908;1251;59675;-72
2022/05/14 05:33:12;;;;;;;8.50;7.70;;;;;;;17.92;77.66;97340.76;109959;1250;71826;-71
2022/05/14 05:35:46;;;;;;;8.40;7.30;;;;;;;18.11;76.73;97334.73;109911;1250;68641;-72
2022/05/14 05:38:18;;;;;;;9.30;8.40;;;;;;;18.15;74.23;97333.37;109788;1250;68888;-70
2022/05/14 05:40:52;;;;;;;10.10;8.90;;;;;;;18.00;74.23;97337.10;109966;1250;59724;-70
2022/05/14 05:43:23;;;;;;;11.50;9.90;;;;;;;17.95;73.11;97338.12;109794;1250;59688;-70
2022/05/14 05:45:57;;;;;;;9.50;8.40;;;;;;;17.73;72.84;97340.63;109971;1250;71644;-71
2022/05/14 05:48:33;;;;;;;11.00;9.70;;;;;;;17.64;74.26;97341.98;110024;1249;67780;-71
2022/05/14 05:51:11;;;;;;;11.40;10.30;;;;;;;17.69;73.69;97340.65;109658;1251;68633;-71
2022/05/14 05:56:47;;;;;;;13.50;11.40;;;;;;;17.81;72.92;97343.65;110192;1249;59678;-70
2022/05/14 05:59:19;;;;;;;12.10;10.70;;;;;;;17.86;73.23;97338.90;109942;1250;71634;-70
2022/05/14 06:01:51;;;;;;;11.00;9.90;;;;;;;17.99;72.08;97342.46;109952;1250;67626;-69
2022/05/14 06:04:22;;;;;;;12.80;10.60;;;;;;;18.21;71.30;97337.02;109896;1250;69566;-71
2022/05/14 06:06:53;;;;;;;12.10;10.80;;;;;;;18.34;70.48;97336.48;109857;1251;59739;-70
2022/05/14 06:09:26;;;;;;;11.80;10.60;;;;;;;18.57;69.47;97337.60;110004;1250;59761;-70
2022/05/14 06:12:11;;;;;;;11.00;9.60;;;;;;;18.53;68.20;97337.13;109649;1251;71694;-70
2022/05/14 06:14:44;;;;;;;12.20;10.70;;;;;;;18.65;68.54;97337.61;109749;1250;68713;-70
2022/05/14 06:17:23;;;;;;;12.20;11.00;;;;;;;18.66;69.09;97334.86;109947;1251;68841;-70
2022/05/14 06:19:55;;;;;;;12.30;10.30;;;;;;;18.81;68.29;97334.98;109742;1253;59752;-70
2022/05/14 06:22:28;;;;;;;12.70;11.40;;;;;;;18.85;67.87;97339.20;109865;1251;59678;-70
2022/05/14 06:25:06;;;;;;;12.70;10.90;;;;;;;18.70;67.98;97337.58;109759;1253;71838;-70
2022/05/14 06:27:38;;;;;;;12.50;11.30;;;;;;;18.75;68.28;97340.80;109707;1251;68680;-71
2022/05/14 06:30:16;;;;;;;15.00;11.70;;;;;;;18.97;67.15;97341.21;109874;1251;68666;-70
2022/05/14 06:32:47;;;;;;;12.60;11.30;;;;;;;19.10;67.22;97341.94;109742;1252;59716;-69
2022/05/14 06:35:17;;;;;;;12.00;9.70;;;;;;;19.27;66.50;97346.27;109938;1250;59799;-68
2022/05/14 06:37:48;;;;;;;9.70;8.80;;;;;;;19.11;65.63;97338.36;109746;1253;71386;-72
2022/05/14 06:40:17;;;;;;;10.50;9.40;;;;;;;19.39;65.18;97337.95;109812;1251;67641;-70
2022/05/14 06:42:47;;;;;;;9.60;8.60;;;;;;;19.70;64.31;97338.87;109512;1250;69277;-70
2022/05/14 06:45:16;;;;;;;9.00;7.00;;;;;;;19.68;64.30;97340.93;109882;1250;60018;-70
2022/05/14 06:47:45;;;;;;;10.10;6.90;;;;;;;19.97;64.27;97344.29;109771;1252;59783;-71
2022/05/14 06:50:14;;;;;;;9.00;6.90;;;;;;;20.58;64.18;97341.88;109896;1250;72288;-71
2022/05/14 06:52:48;;;;;;;9.30;7.90;;;;;;;21.17;59.32;97343.58;109833;1250;67615;-72
2022/05/14 06:55:22;;;;;;;8.50;6.70;;;;;;;21.45;58.16;97341.67;109903;1251;69721;-71
2022/05/14 06:57:52;;;;;;;8.50;7.60;;;;;;;21.37;58.32;97339.23;110003;1250;59649;-69
2022/05/14 07:00:22;;;;;;;7.00;6.10;;;;;;;21.37;57.31;97339.42;109851;1250;59640;-71
2022/05/14 07:06:37;;;;;;;7.10;5.60;;;;;;;21.99;56.88;97340.19;110230;1248;71795;-70
2022/05/14 07:08:28;;;;;;;5.80;5.20;;;;;;;22.18;56.87;97335.81;110171;1248;69439;-71
2022/05/14 07:10:58;;;;;;;7.30;6.00;;;;;;;22.32;55.58;97337.33;110030;1248;59744;-71
2022/05/14 07:13:28;;;;;;;7.40;6.10;;;;;;;22.29;54.50;97330.41;110318;1248;59739;-72
2022/05/14 07:15:57;;;;;;;9.50;6.60;;;;;;;22.69;54.85;97328.68;109973;1250;69833;-71
2022/05/14 07:18:26;;;;;;;7.30;5.50;;;;;;;22.98;53.57;97322.37;109941;1250;68643;-73
2022/05/14 07:20:56;;;;;;;6.20;5.50;;;;;;;23.45;52.73;97319.98;110028;1250;69476;-72
2022/05/14 07:23:25;;;;;;;;;;;;;;;23.76;51.18;97319.30;110124;1250;59684;-70
2022/05/14 07:25:54;;;;;;;6.00;5.30;;;;;;;23.80;50.41;97320.53;109835;1250;59625;-72
2022/05/14 07:28:23;;;;;;;8.60;5.60;;;;;;;23.72;50.10;97320.11;109763;1253;70781;-70
2022/05/14 07:30:51;;;;;;;5.70;5.10;;;;;;;23.14;51.74;97320.20;109769;1253;68791;-70
2022/05/14 07:33:20;;;;;;;6.20;4.70;;;;;;;23.43;52.41;97314.55;109890;1250;68910;-71
2022/05/14 07:35:50;;;;;;;5.70;5.10;;;;;;;23.48;51.64;97320.17;109834;1251;59728;-70
2022/05/14 07:38:19;;;;;;;5.40;4.70;;;;;;;23.19;51.15;97321.73;110126;1250;59724;-70
2022/05/14 07:40:48;;;;;;;5.80;4.70;;;;;;;23.50;50.15;97319.91;109707;1251;70933;-71
2022/05/14 07:43:22;;;;;;;5.40;4.90;;;;;;;23.69;49.19;97326.40;110153;1250;68807;-71
2022/05/14 07:45:56;;;;;;;5.40;4.30;;;;;;;23.90;49.42;97331.48;110156;1250;68662;-70
2022/05/14 07:48:31;;;;;;;6.30;4.60;;;;;;;24.00;49.00;97329.36;110218;1250;59743;-71
2022/05/14 07:51:03;;;;;;;5.30;4.80;;;;;;;24.41;49.15;97327.52;110097;1250;59594;-70
2022/05/14 07:53:33;;;;;;;5.00;4.50;;;;;;;24.79;46.85;97331.67;110157;1250;71552;-70
2022/05/14 07:56:14;;;;;;;6.10;4.70;;;;;;;24.63;47.37;97336.66;110125;1250;68874;-71
2022/05/14 07:58:48;;;;;;;6.50;4.40;;;;;;;24.39;48.21;97335.33;110197;1247;69288;-71
2022/05/14 08:01:24;;;;;;;5.40;4.80;;;;;;;23.98;48.50;97338.08;110097;1250;59598;-71
2022/05/14 08:04:00;;;;;;;5.20;4.60;;;;;;;23.75;49.18;97337.58;110245;1250;59695;-70
2022/05/14 08:06:34;;;;;;;5.00;4.50;;;;;;;24.20;47.26;97339.06;110162;1248;71336;-71
2022/05/14 08:09:03;;;;;;;4.10;3.70;;;;;;;24.50;45.95;97339.19;110113;1250;68568;-70
2022/05/14 08:11:33;;;;;;;6.50;4.80;;;;;;;24.37;46.72;97341.25;110147;1251;69440;-70
2022/05/14 08:14:02;;;;;;;4.90;4.20;;;;;;;24.30;47.32;97348.55;110066;1250;59668;-69
2022/05/14 08:16:31;;;;;;;4.50;3.90;;;;;;;24.40;47.24;97341.17;110004;1250;59624;-69
2022/05/14 08:19:03;;;;;;;4.60;4.10;;;;;;;24.94;47.25;97339.48;110234;1248;70959;-70
2022/05/14 08:24:34;;;;;;;5.20;3.30;;;;;;;25.33;44.16;97342.81;110143;1250;69618;-70
2022/05/14 08:27:10;;;;;;;5.40;3.80;;;;;;;25.56;43.21;97343.73;109916;1251;59753;-71
2022/05/14 08:29:47;;;;;;;3.80;3.40;;;;;;;25.76;42.97;97344.71;109876;1251;59741;-71
2022/05/14 08:32:20;;;;;;;4.40;3.70;;;;;;;25.87;41.90;97348.36;109934;1251;70582;-68
2022/05/14 08:34:51;;;;;;;4.80;4.10;;;;;;;25.78;40.93;97346.52;109959;1250;67803;-69
2022/05/14 08:37:24;;;;;;;4.00;3.60;;;;;;;26.10;42.56;97348.74;109904;1250;69492;-71
2022/05/14 08:39:53;;;;;;;5.40;3.90;;;;;;;26.56;42.20;97340.98;109922;1251;59755;-69
2022/05/14 08:42:22;;;;;;;5.20;4.20;;;;;;;26.32;42.41;97347.43;110183;1250;60172;-70
2022/05/14 08:44:52;;;;;;;3.50;3.10;;;;;;;26.24;42.65;97346.64;110174;1250;70908;-69
2022/05/14 08:47:48;;;;;;;4.30;3.80;;;;;;;25.91;41.65;97344.55;110190;1249;68609;-71
2022/05/14 08:50:18;;;;;;;4.40;3.60;;;;;;;26.39;41.65;97347.61;110201;1250;69485;-71
2022/05/14 08:52:48;;;;;;;4.10;3.30;;;;;;;26.89;40.54;97340.25;109974;1251;59693;-71
2022/05/14 08:55:18;;;;;;;4.80;3.50;;;;;;;26.82;40.16;97336.00;110177;1250;59654;-70
2022/05/14 08:57:50;;;;;;;5.80;3.60;;;;;;;27.25;39.95;97341.16;110098;1250;71526;-69
2022/05/14 09:00:22;;;;;;;3.90;3.40;;;;;;;27.37;39.96;97340.90;109943;1250;68537;-70
2022/05/14 09:02:54;;;;;;;4.90;4.10;;;;;;;27.33;40.13;97338.34;110188;1250;69519;-71
2022/05/14 09:05:25;;;;;;;3.50;3.20;;;;;;;26.90;39.91;97339.66;110188;1249;59744;-72
2022/05/14 09:07:54;;;;;;;5.10;3.40;;;;;;;26.84;40.59;97340.90;109901;1251;59723;-71
2022/05/14 09:10:38;;;;;;;4.30;3.90;;;;;;;27.17;39.45;97341.09;110178;1250;70752;-72
2022/05/14 09:13:20;;;;;;;4.20;3.60;;;;;;;27.40;39.30;97341.40;109846;1251;68135;-72
2022/05/14 09:15:57;;;;;;;4.70;3.80;;;;;;;27.94;38.40;97341.11;110112;1250;67758;-72
2022/05/14 09:18:42;;;;;;;3.90;3.30;;;;;;;28.41;38.95;97338.58;110162;1250;59809;-71
2022/05/14 09:21:35;;;;;;;3.30;3.00;;;;;;;28.66;35.42;97335.58;109866;1251;59609;-70
2022/05/14 09:24:18;;;;;;;3.20;2.90;;;;;;;28.87;35.42;97338.70;109957;1251;71592;-71
2022/05/14 09:26:46;;;;;;;4.70;3.30;;;;;;;29.19;35.04;97331.35;110156;1250;68602;-71
2022/05/14 09:29:27;;;;;;;;;;;;;;;28.91;35.00;97331.11;110021;1250;69466;-70
2022/05/14 09:32:02;;;;;;;4.30;3.00;;;;;;;28.74;34.57;97332.56;110188;1250;59752;-69
2022/05/14 09:34:35;;;;;;;4.00;3.60;;;;;;;29.01;35.18;97333.44;110128;1250;59659;-71
2022/05/14 09:37:10;;;;;;;3.30;2.90;;;;;;;29.36;34.31;97327.92;109862;1251;71586;-71
2022/05/14 09:39:40;;;;;;;5.30;3.40;;;;;;;29.51;33.70;97326.10;109774;1251;68637;-70
2022/05/14 09:42:25;;;;;;;3.10;2.80;;;;;;;29.90;33.96;97334.69;109847;1251;68758;-70
2022/05/14 09:44:55;;;;;;;4.40;3.30;;;;;;;30.00;30.96;97331.78;109886;1251;59747;-70
2022/05/14 09:47:31;;;;;;;4.90;3.00;;;;;;;30.21;32.80;97328.05;109827;1251;59660;-71
2022/05/14 09:50:06;;;;;;;3.60;3.30;;;;;;;30.54;31.02;97327.80;109862;1250;70793;-71
2022/05/14 09:52:36;;;;;;;5.20;3.50;;;;;;;30.71;30.79;97322.59;110192;1248;68585;-71
2022/05/14 09:55:10;;;;;;;4.10;3.40;;;;;;;30.51;30.98;97324.84;110172;1249;69534;-70
2022/05/14 09:57:47;;;;;;;4.10;3.70;;;;;;;30.55;30.95;97321.63;109187;1251;793762;-72
2022/05/14 10:00:22;;;;;;;4.80;3.60;;;;;;;30.67;30.42;97327.61;109916;1251;59660;-71
2022/05/14 10:03:19;;;;;;;4.00;3.60;;;;;;;30.60;30.03;97329.80;109942;1251;71482;-71
2022/05/14 10:06:10;;;;;;;4.60;3.00;;;;;;;30.41;29.57;97331.77;110087;1251;68198;-71
2022/05/14 10:08:58;;;;;;;3.70;2.80;;;;;;;30.37;29.74;97328.95;110154;1248;68253;-71
2022/05/14 10:11:39;;;;;;;9.60;8.70;;;;;;;30.17;30.16;97327.93;110222;1250;60104;-72
2022/05/14 10:14:37;;;;;;;4.70;4.00;;;;;;;29.63;30.27;97327.48;110138;1250;59636;-69
2022/05/14 10:17:32;;;;;;;5.00;3.00;;;;;;;29.45;29.63;97325.37;109971;1251;71557;-70
2022/05/14 10:20:37;;;;;;;2.90;2.40;;;;;;;29.58;29.89;97324.16;110035;1250;67629;-69
2022/05/14 10:26:56;;;;;;;13.70;11.40;;;;;;;29.93;28.93;97322.68;110046;1250;60116;-72
2022/05/14 10:29:31;;;;;;;10.00;7.00;;;;;;;29.61;27.50;97315.16;110103;1247;59745;-71
2022/05/14 10:32:07;;;;;;;8.60;7.00;;;;;;;29.79;28.90;97316.50;110142;1249;71634;-71
2022/05/14 10:34:48;;;;;;;4.80;4.30;;;;;;;29.51;28.68;97313.05;110022;1250;67865;-71
2022/05/14 10:37:28;;;;;;;13.70;12.00;;;;;;;29.50;29.15;97309.21;109933;1250;68807;-71
2022/05/14 10:40:34;;;;;;;8.90;7.00;;;;;;;29.55;29.69;97306.85;109901;1251;59725;-70
2022/05/14 10:43:19;;;;;;;4.60;3.20;;;;;;;29.19;28.94;97307.71;109355;1257;59792;-71
2022/05/14 10:45:51;;;;;;;2.90;2.60;;;;;;;29.74;26.69;97305.19;109360;1257;72242;-71
2022/05/14 10:48:33;;;;;;;4.00;3.40;;;;;;;29.84;27.67;97307.45;109353;1257;67835;-71
2022/05/14 10:51:08;;;;;;;3.90;2.10;;;;;;;29.55;26.51;97305.67;109385;1257;68898;-70
2022/05/14 10:53:47;;;;;;;3.60;2.60;;;;;;;29.53;26.47;97309.33;109328;1257;59677;-72
2022/05/14 10:56:37;;;;;;;3.30;2.80;;;;;;;29.76;27.08;97310.95;109249;1257;60064;-69
2022/05/14 10:59:32;;;;;;;3.20;2.40;;;;;;;29.91;27.51;97311.00;109415;1257;71679;-72
2022/05/14 11:02:06;;;;;;;3.80;2.80;;;;;;;29.66;26.88;97306.44;109362;1257;68634;-71
2022/05/14 11:04:42;;;;;;;2.50;2.30;;;;;;;29.00;27.33;97310.33;109281;1258;68721;-73
2022/05/14 11:07:25;;;;;;;3.70;2.30;;;;;;;29.14;26.98;97309.16;109358;1257;59734;-71
2022/05/14 11:10:06;;;;;;;2.80;2.20;;;;;;;29.47;27.47;97306.99;109393;1255;59685;-71
2022/05/14 11:12:35;;;;;;;2.50;2.10;;;;;;;29.84;26.70;97309.65;109388;1257;71484;-71
2022/05/14 11:15:19;;;;;;;3.70;2.80;;;;;;;30.08;26.63;97306.94;109379;1257;67941;-71
2022/05/14 11:17:49;;;;;;;3.20;1.90;;;;;;;30.29;26.36;97308.30;109427;1257;69054;-71
2022/05/14 11:20:19;;;;;;;3.90;2.00;;;;;;;30.77;24.92;97307.21;109951;1249;59786;-70
2022/05/14 11:22:52;;;;;;;3.70;2.40;;;;;;;30.74;24.31;97308.02;110138;1250;59756;-72
2022/05/14 11:25:26;;;;;;;2.30;2.00;;;;;;;30.10;25.42;97308.22;110115;1250;70778;-72
2022/05/14 11:28:02;;;;;;;3.50;2.40;;;;;;;29.53;26.25;97301.37;109923;1250;67819;-70
2022/05/14 11:30:44;;;;;;;2.80;2.20;;;;;;;29.89;26.21;97304.59;110136;1249;68580;-70
2022/05/14 11:33:29;;;;;;;2.90;2.00;;;;;;;29.93;26.14;97302.89;109900;1250;59822;-71
2022/05/14 11:36:24;;;;;;;2.60;1.90;;;;;;;29.56;26.29;97300.91;110180;1250;59725;-72
2022/05/14 11:39:23;;;;;;;3.70;2.40;;;;;;;29.12;26.28;97297.37;109824;1250;70936;-71
2022/05/14 11:42:25;;;;;;;5.00;2.50;;;;;;;29.04;26.71;97297.02;110182;1250;66816;-71
2022/05/14 11:45:13;;;;;;;2.50;2.00;;;;;;;29.34;26.92;97299.71;110122;1250;68672;-71
2022/05/14 11:47:53;;;;;;;2.90;2.20;;;;;;;28.81;25.49;97292.21;110130;1250;59683;-69
2022/05/14 11:50:27;;;;;;;4.50;2.60;;;;;;;28.50;26.52;97287.67;110156;1250;59634;-72
2022/05/14 11:53:13;;;;;;;2.70;2.20;;;;;;;28.50;27.59;97286.97;110167;1250;70801;-70
2022/05/14 11:55:53;;;;;;;3.40;2.20;;;;;;;28.74;26.90;97292.20;109854;1250;68046;-71
2022/05/14 11:58:38;;;;;;;3.20;2.30;;;;;;;28.79;25.84;97285.71;110148;1250;69827;-70
2022/05/14 12:01:12;;;;;;;3.30;2.20;;;;;;;28.72;26.46;97285.81;110151;1250;59761;-71
2022/05/14 12:03:44;;;;;;;3.20;2.50;;;;;;;28.37;27.23;97290.20;109983;1250;59660;-70
2022/05/14 12:06:36;;;;;;;3.10;2.30;;;;;;;28.08;28.09;97289.66;110207;1250;71593;-72
2022/05/14 12:09:22;;;;;;;2.80;2.40;;;;;;;28.20;28.65;97286.66;110148;1249;67845;-71
2022/05/14 12:12:18;;;;;;;3.90;2.50;;;;;;;28.15;28.07;97282.50;109955;1251;69552;-70
2022/05/14 12:14:47;;;;;;;2.90;2.10;;;;;;;27.95;28.39;97280.06;109857;1250;59684;-70
2022/05/14 12:17:22;;;;;;;2.60;2.20;;;;;;;28.18;27.93;97278.34;109863;1247;59653;-72
2022/05/14 12:19:55;;;;;;;3.70;2.20;;;;;;;28.32;27.83;97279.36;110157;1251;71611;-72